Time;durP1;ratioP1;P1;durP2;ratioP2;P2;SDS_P1;SDS_P2;PMS_P1;PMS_P2;Temp;Humidity;BMP_temperature;BMP_pressure;BME280_temperature;BME280_humidity;BME280_pressure;Samples;Min_cycle;Max_cycle;Signal;HPM_P1;HPM_P2
2024/05/08 00:01:31;;;;;;;29.13;27.03;;;;;;;13.90;99.40;101098.50;5347137;26;20475;-79
2024/05/08 00:03:56;;;;;;;29.10;27.10;;;;;;;14.06;98.70;101098.06;5347179;26;20229;-79
2024/05/08 00:06:22;;;;;;;31.53;29.27;;;;;;;14.24;97.89;101089.13;5347134;26;20326;-79
2024/05/08 00:08:47;;;;;;;28.80;26.80;;;;;;;14.38;97.10;101085.25;5347252;26;20278;-79
2024/05/08 00:11:12;;;;;;;29.67;27.27;;;;;;;14.58;95.50;101094.50;5347234;26;20292;-77
2024/05/08 00:13:37;;;;;;;27.37;25.13;;;;;;;14.64;93.63;101092.78;5347235;26;20245;-79
2024/05/08 00:16:04;;;;;;;28.70;26.70;;;;;;;14.22;96.34;101102.38;5339593;26;20765;-79
2024/05/08 00:18:29;;;;;;;27.47;25.23;;;;;;;13.70;99.03;101090.13;5346936;26;20777;-79
2024/05/08 00:20:54;;;;;;;27.10;25.10;;;;;;;13.75;99.52;101095.06;5346850;26;20512;-79
2024/05/08 00:23:19;;;;;;;28.73;26.33;;;;;;;13.66;100.00;101095.25;5346788;26;20268;-79
2024/05/08 00:25:45;;;;;;;26.17;24.33;;;;;;;13.85;100.00;101095.50;5347205;26;20229;-76
2024/05/08 00:28:10;;;;;;;26.97;24.80;;;;;;;14.53;95.52;101105.38;5347165;26;20276;-79
2024/05/08 00:30:36;;;;;;;29.27;26.20;;;;;;;14.20;96.88;101110.94;5347000;26;20818;-79
2024/05/08 00:33:02;;;;;;;31.00;28.00;;;;;;;13.98;97.98;101101.06;5339906;26;20283;-79
2024/05/08 00:35:27;;;;;;;32.27;28.87;;;;;;;13.92;98.91;101088.00;5347006;26;20774;-79
2024/05/08 00:37:53;;;;;;;32.23;29.40;;;;;;;13.70;100.00;101096.53;5346246;26;20511;-79
2024/05/08 00:40:18;;;;;;;32.80;30.33;;;;;;;13.71;100.00;101106.59;5346566;26;20320;-79
2024/05/08 00:42:50;;;;;;;30.23;27.57;;;;;;;14.39;96.75;101090.63;5347158;26;20237;-79
2024/05/08 00:45:15;;;;;;;29.20;27.20;;;;;;;14.58;95.29;101113.09;5346898;26;20292;-80
2024/05/08 00:47:41;;;;;;;28.07;26.20;;;;;;;14.51;96.17;101112.25;5346746;26;20455;-80
2024/05/08 00:50:06;;;;;;;28.37;26.27;;;;;;;14.16;96.94;101106.88;5336568;26;20702;-80
2024/05/08 00:52:32;;;;;;;29.40;27.40;;;;;;;13.83;100.00;101114.28;5346791;26;20283;-80
2024/05/08 00:54:58;;;;;;;27.90;26.00;;;;;;;14.08;99.56;101096.81;5346468;26;20233;-79
2024/05/08 00:57:24;;;;;;;27.77;25.47;;;;;;;14.69;95.45;101115.22;5346666;26;20515;-78
2024/05/08 00:59:49;;;;;;;29.77;27.67;;;;;;;14.14;97.83;101097.03;5346979;26;20455;-80
2024/05/08 01:02:15;;;;;;;31.43;29.03;;;;;;;14.65;96.42;101111.19;5346769;26;20357;-80
2024/05/08 01:04:40;;;;;;;29.70;27.37;;;;;;;14.62;96.29;101117.16;5346254;26;20291;-80
2024/05/08 01:07:06;;;;;;;29.67;27.47;;;;;;;14.16;97.50;101098.53;5314497;26;20245;-80
2024/05/08 01:09:31;;;;;;;30.40;27.67;;;;;;;14.38;97.23;101113.06;5345835;26;20229;-77
2024/05/08 01:11:57;;;;;;;28.60;26.50;;;;;;;14.07;97.85;101111.75;5346222;26;20232;-80
2024/05/08 01:14:23;;;;;;;27.30;25.40;;;;;;;13.97;99.23;101114.09;5346133;26;20233;-79
2024/05/08 01:16:51;;;;;;;29.87;27.70;;;;;;;13.99;99.20;101114.75;5315384;26;21000;-80
2024/05/08 01:19:16;;;;;;;29.43;27.33;;;;;;;13.82;100.00;101110.66;5345854;26;20275;-76
2024/05/08 01:21:42;;;;;;;31.13;28.83;;;;;;;13.22;100.00;101106.81;5346062;26;20455;-80
2024/05/08 01:24:07;;;;;;;27.73;25.73;;;;;;;13.79;100.00;101108.28;5314295;26;20249;-80
2024/05/08 01:26:34;;;;;;;27.93;25.73;;;;;;;13.64;99.99;101063.19;5346041;26;20318;-79
2024/05/08 01:28:59;;;;;;;30.67;28.23;;;;;;;13.95;100.00;101120.94;5345837;26;20289;-79
2024/05/08 01:31:26;;;;;;;33.70;31.03;;;;;;;13.71;100.00;101109.34;5345672;26;20508;-80
2024/05/08 01:33:52;;;;;;;36.20;33.30;;;;;;;13.41;100.00;101116.31;5345682;26;20300;-80
2024/05/08 01:36:17;;;;;;;38.07;34.37;;;;;;;13.16;100.00;101109.56;5345632;26;20515;-77
2024/05/08 01:38:42;;;;;;;37.70;34.57;;;;;;;13.16;100.00;101110.41;5345988;26;20233;-81
2024/05/08 01:41:08;;;;;;;37.70;34.40;;;;;;;13.16;100.00;101115.97;5332397;26;20237;-80
2024/05/08 01:43:33;;;;;;;40.23;36.73;;;;;;;13.14;100.00;101112.50;5345716;26;20233;-81
2024/05/08 01:45:58;;;;;;;41.07;37.07;;;;;;;12.70;100.00;101135.06;5345802;26;20233;-81
2024/05/08 01:48:23;;;;;;;39.13;35.80;;;;;;;12.80;100.00;101112.53;5345524;26;20233;-82
2024/05/08 01:50:49;;;;;;;39.07;35.77;;;;;;;13.01;100.00;101137.38;5345498;26;20259;-81
2024/05/08 01:53:14;;;;;;;39.63;36.43;;;;;;;13.02;100.00;101125.25;5345517;26;20236;-81
2024/05/08 01:55:40;;;;;;;38.80;35.80;;;;;;;13.15;100.00;101125.34;5345257;26;20279;-81
2024/05/08 01:58:05;;;;;;;38.13;35.07;;;;;;;13.10;100.00;101122.31;5329727;26;20230;-82
2024/05/08 02:00:31;;;;;;;39.60;36.40;;;;;;;12.78;100.00;101132.16;5359918;26;20346;-81
2024/05/08 02:02:56;;;;;;;39.47;36.37;;;;;;;13.10;100.00;101127.88;5343521;26;20241;-82
2024/05/08 02:05:23;;;;;;;35.17;32.47;;;;;;;13.14;100.00;101125.53;5345274;26;20698;-81
2024/05/08 02:07:48;;;;;;;35.13;32.23;;;;;;;13.31;100.00;101132.47;5345154;26;20229;-80
2024/05/08 02:10:13;;;;;;;35.27;32.43;;;;;;;13.33;100.00;101135.88;5345146;26;20798;-81
2024/05/08 02:12:39;;;;;;;34.40;31.60;;;;;;;13.25;100.00;101127.75;5344938;26;20233;-81
2024/05/08 02:15:04;;;;;;;35.87;33.10;;;;;;;13.07;100.00;101125.50;5328388;26;20777;-80
2024/05/08 02:17:30;;;;;;;35.00;32.40;;;;;;;13.14;100.00;101136.63;5344519;26;20233;-80
2024/05/08 02:19:55;;;;;;;31.80;29.47;;;;;;;13.28;100.00;101150.41;5344888;26;20233;-80
2024/05/08 02:22:20;;;;;;;30.60;28.30;;;;;;;13.67;100.00;101149.72;5347913;26;20710;-80
2024/05/08 02:24:45;;;;;;;30.60;28.30;;;;;;;14.02;100.00;101141.25;5349131;26;20233;-79
2024/05/08 02:27:11;;;;;;;29.00;26.87;;;;;;;13.61;100.00;101136.66;5348722;26;20611;-80
2024/05/08 02:29:36;;;;;;;28.70;26.50;;;;;;;13.48;100.00;101144.94;5348451;26;20343;-79
2024/05/08 02:32:01;;;;;;;29.57;27.47;;;;;;;13.37;100.00;101139.97;5332497;26;20566;-79
2024/05/08 02:34:27;;;;;;;30.43;28.23;;;;;;;13.60;100.00;101140.47;5345004;26;20233;-79
2024/05/08 02:36:52;;;;;;;28.40;26.40;;;;;;;14.08;100.00;101129.28;5348329;26;20283;-79
2024/05/08 02:39:17;;;;;;;28.00;25.97;;;;;;;14.28;100.00;101144.06;5346568;26;20318;-79
2024/05/08 02:41:42;;;;;;;31.43;29.13;;;;;;;14.36;99.17;101151.38;5348367;26;20237;-80
2024/05/08 02:44:08;;;;;;;31.03;28.73;;;;;;;14.09;100.00;101144.91;5348507;26;20248;-80
2024/05/08 02:46:33;;;;;;;30.80;28.20;;;;;;;14.06;99.50;101126.72;5348293;26;20233;-80
2024/05/08 02:48:58;;;;;;;32.57;30.17;;;;;;;14.02;100.00;101146.81;5347188;26;20601;-80
2024/05/08 02:51:23;;;;;;;31.53;29.23;;;;;;;13.74;100.00;101155.31;5348170;26;20241;-80
2024/05/08 02:53:49;;;;;;;30.77;28.50;;;;;;;14.02;100.00;101138.50;5348293;26;20229;-80
2024/05/08 02:56:14;;;;;;;32.23;29.83;;;;;;;14.10;100.00;101141.06;5347891;26;20249;-80
2024/05/08 02:58:39;;;;;;;32.33;29.83;;;;;;;14.36;98.78;101152.19;5348498;26;20233;-80
2024/05/08 03:01:04;;;;;;;31.17;28.77;;;;;;;14.33;99.40;101149.00;5348185;26;20672;-79
2024/05/08 03:03:30;;;;;;;31.47;29.07;;;;;;;14.18;100.00;101149.19;5348474;26;20233;-80
2024/05/08 03:05:55;;;;;;;32.30;29.80;;;;;;;13.85;100.00;101149.13;5347855;26;20245;-80
2024/05/08 03:08:20;;;;;;;31.60;29.10;;;;;;;13.79;100.00;101155.50;5347804;26;20249;-80
2024/05/08 03:10:46;;;;;;;33.57;31.07;;;;;;;13.93;100.00;101171.16;5348033;26;20233;-81
2024/05/08 03:13:11;;;;;;;32.57;29.90;;;;;;;13.86;100.00;101167.50;5348112;26;20710;-80
2024/05/08 03:15:36;;;;;;;34.10;31.30;;;;;;;13.95;100.00;101169.03;5348004;26;20722;-80
2024/05/08 03:18:03;;;;;;;33.83;31.13;;;;;;;13.81;100.00;101177.53;5347648;26;20232;-79
2024/05/08 03:20:29;;;;;;;34.17;31.53;;;;;;;13.92;100.00;101180.53;5347998;26;20576;-80
2024/05/08 03:22:54;;;;;;;33.83;31.07;;;;;;;13.87;100.00;101172.00;5346363;26;20557;-80
2024/05/08 03:25:20;;;;;;;34.50;31.80;;;;;;;14.09;100.00;101183.78;5347776;26;20608;-80
2024/05/08 03:27:45;;;;;;;33.00;30.30;;;;;;;13.67;100.00;101184.94;5347641;26;20267;-77
2024/05/08 03:30:12;;;;;;;31.40;28.90;;;;;;;13.92;100.00;101191.66;5311386;27;20264;-80
2024/05/08 03:32:37;;;;;;;34.50;31.57;;;;;;;13.87;100.00;101183.13;5331403;26;20282;-79
2024/05/08 03:35:03;;;;;;;31.87;29.47;;;;;;;13.68;100.00;101193.06;5317036;26;20818;-79
2024/05/08 03:37:28;;;;;;;31.90;29.50;;;;;;;13.79;100.00;101185.19;5347393;26;20721;-80
2024/05/08 03:39:54;;;;;;;32.63;30.13;;;;;;;13.63;100.00;101194.75;5344446;26;20275;-80
2024/05/08 03:42:19;;;;;;;31.67;29.27;;;;;;;13.55;100.00;101193.03;5347557;26;20229;-79
2024/05/08 03:44:44;;;;;;;30.23;27.83;;;;;;;13.56;100.00;101194.75;5347631;26;20229;-78
2024/05/08 03:47:09;;;;;;;29.43;27.13;;;;;;;13.63;100.00;101214.19;5347321;26;20593;-79
2024/05/08 03:49:35;;;;;;;27.87;25.83;;;;;;;13.70;100.00;101192.88;5347653;26;20304;-79
2024/05/08 03:52:00;;;;;;;27.70;25.80;;;;;;;13.72;100.00;101208.28;5347395;26;20237;-79
2024/05/08 03:54:25;;;;;;;28.13;26.13;;;;;;;13.62;100.00;101190.25;5347551;26;20558;-79
2024/05/08 03:56:50;;;;;;;28.60;26.47;;;;;;;14.38;99.51;101205.66;5342119;26;20338;-79
2024/05/08 03:59:16;;;;;;;28.33;26.23;;;;;;;14.27;99.06;101202.66;5347294;26;20752;-78
2024/05/08 04:01:45;;;;;;;28.30;26.27;;;;;;;14.11;100.00;101219.72;5347203;26;20347;-80
2024/05/08 04:04:10;;;;;;;30.70;28.03;;;;;;;13.78;100.00;101195.44;5346766;26;20237;-78
2024/05/08 04:06:38;;;;;;;29.23;27.03;;;;;;;13.80;100.00;101210.00;5347321;26;21109;-80
2024/05/08 04:09:03;;;;;;;29.43;27.17;;;;;;;13.94;100.00;101214.53;5346953;26;20353;-80
2024/05/08 04:11:28;;;;;;;31.83;29.17;;;;;;;13.55;100.00;101218.00;5347239;26;20991;-80
2024/05/08 04:13:53;;;;;;;31.13;28.60;;;;;;;13.42;100.00;101219.84;5340380;26;20244;-79
2024/05/08 04:16:19;;;;;;;29.83;27.63;;;;;;;13.39;100.00;101215.56;5316593;26;20244;-79
2024/05/08 04:18:45;;;;;;;31.00;28.70;;;;;;;13.34;100.00;101213.41;5347009;26;20342;-79
2024/05/08 04:21:11;;;;;;;28.20;26.00;;;;;;;13.58;100.00;101225.06;5346859;26;20562;-79
2024/05/08 04:23:36;;;;;;;28.60;26.20;;;;;;;13.68;100.00;101233.88;5346986;26;20520;-79
2024/05/08 04:26:02;;;;;;;28.67;26.57;;;;;;;13.62;100.00;101232.75;5346966;26;20342;-79
2024/05/08 04:28:27;;;;;;;29.50;27.30;;;;;;;13.84;100.00;101233.53;5347353;26;20241;-79
2024/05/08 04:30:52;;;;;;;29.97;27.77;;;;;;;14.22;100.00;101247.75;5338359;26;20348;-78
2024/05/08 04:33:18;;;;;;;27.33;25.40;;;;;;;14.24;100.00;101251.16;5346804;26;20547;-79
2024/05/08 04:35:44;;;;;;;27.27;25.23;;;;;;;14.21;100.00;101256.28;5346901;26;20337;-79
2024/05/08 04:38:12;;;;;;;25.10;23.30;;;;;;;14.11;100.00;101262.25;5346662;26;20568;-79
2024/05/08 04:40:38;;;;;;;25.37;23.07;;;;;;;14.20;100.00;101261.03;5346762;26;20456;-79
2024/05/08 04:43:04;;;;;;;25.70;23.80;;;;;;;14.17;100.00;101260.56;5346229;26;20582;-78
2024/05/08 04:45:30;;;;;;;23.80;22.17;;;;;;;14.20;100.00;101265.72;5346209;26;20233;-79
2024/05/08 04:47:55;;;;;;;23.20;21.23;;;;;;;14.24;100.00;101269.78;5344778;26;20467;-77
2024/05/08 04:50:20;;;;;;;22.90;21.30;;;;;;;14.24;100.00;101278.97;5346710;26;20558;-79
2024/05/08 04:52:46;;;;;;;24.07;22.17;;;;;;;14.12;100.00;101275.09;5346462;26;20591;-79
2024/05/08 04:55:11;;;;;;;23.67;21.97;;;;;;;14.22;100.00;101277.47;5346462;26;20284;-79
2024/05/08 04:57:37;;;;;;;24.17;22.47;;;;;;;14.18;100.00;101270.63;5346423;26;20300;-79
2024/05/08 05:00:03;;;;;;;22.40;20.90;;;;;;;14.13;100.00;101275.94;5366179;26;20278;-79
2024/05/08 05:02:28;;;;;;;21.83;20.30;;;;;;;14.47;100.00;101294.47;5346847;26;20753;-79
2024/05/08 05:04:54;;;;;;;23.87;22.07;;;;;;;14.43;100.00;101281.00;5334815;26;20503;-76
2024/05/08 05:07:19;;;;;;;23.53;21.93;;;;;;;14.38;100.00;101294.63;5346287;26;20793;-79
2024/05/08 05:09:45;;;;;;;23.47;21.87;;;;;;;14.14;100.00;101302.66;5345970;26;20229;-80
2024/05/08 05:12:10;;;;;;;22.47;20.87;;;;;;;14.26;100.00;101298.22;5346626;26;20229;-79
2024/05/08 05:14:35;;;;;;;25.50;23.40;;;;;;;14.17;100.00;101293.91;5346284;26;20275;-79
2024/05/08 05:17:01;;;;;;;24.60;22.90;;;;;;;14.35;100.00;101296.97;5346141;26;20301;-79
2024/05/08 05:19:26;;;;;;;23.70;22.00;;;;;;;14.46;100.00;101301.97;5315735;26;20233;-78
2024/05/08 05:21:52;;;;;;;23.23;21.50;;;;;;;15.04;98.42;101313.38;5344765;26;20324;-79
2024/05/08 05:24:17;;;;;;;24.60;22.63;;;;;;;14.39;100.00;101304.69;5346152;26;20233;-79
2024/05/08 05:26:43;;;;;;;25.50;23.60;;;;;;;14.46;100.00;101310.31;5345880;26;20612;-79
2024/05/08 05:29:08;;;;;;;25.67;23.67;;;;;;;14.67;99.95;101301.78;5346083;26;20333;-77
2024/05/08 05:34:12;;;;;;;28.50;26.00;;;;;;;14.63;100.00;101316.34;5345768;26;20706;-76
2024/05/08 05:36:37;;;;;;;29.40;27.30;;;;;;;14.83;100.00;101320.00;5324112;26;20464;-79
2024/05/08 05:39:02;;;;;;;29.87;27.47;;;;;;;14.76;99.94;101317.22;5331605;26;20579;-79
2024/05/08 05:41:28;;;;;;;31.50;29.13;;;;;;;14.76;100.00;101325.56;5345989;26;20244;-79
2024/05/08 05:46:37;;;;;;;32.90;30.43;;;;;;;15.44;97.02;101325.34;5345510;26;20669;-79
2024/05/08 05:49:02;;;;;;;32.93;30.60;;;;;;;15.51;96.62;101325.38;5345551;26;20463;-79
2024/05/08 05:51:28;;;;;;;35.67;32.77;;;;;;;15.55;95.67;101326.66;5345393;26;20233;-79
2024/05/08 05:53:53;;;;;;;34.30;31.80;;;;;;;15.55;95.58;101318.28;5345558;26;20280;-80
2024/05/08 05:56:21;;;;;;;35.20;32.47;;;;;;;15.23;97.51;101318.09;5330097;26;20238;-79
2024/05/08 05:58:46;;;;;;;35.07;32.40;;;;;;;15.25;98.49;101326.25;5349318;26;20274;-80
2024/05/08 06:01:15;;;;;;;35.43;32.73;;;;;;;15.35;98.03;101335.00;5348756;26;20471;-79
2024/05/08 06:03:40;;;;;;;34.87;31.97;;;;;;;15.27;99.29;101335.25;5348763;26;20280;-79
2024/05/08 06:06:06;;;;;;;39.80;36.60;;;;;;;15.12;100.00;101344.63;5348791;26;20468;-79
2024/05/08 06:08:31;;;;;;;40.87;37.77;;;;;;;15.39;99.06;101339.09;5348730;26;20229;-79
2024/05/08 06:10:56;;;;;;;40.93;37.83;;;;;;;15.18;98.93;101337.38;5348793;26;20660;-80
2024/05/08 06:13:22;;;;;;;40.47;37.23;;;;;;;15.57;97.57;101346.81;5331400;26;20234;-79
2024/05/08 06:15:47;;;;;;;45.10;41.57;;;;;;;15.51;97.80;101337.38;5348656;26;20233;-79
2024/05/08 06:18:12;;;;;;;43.33;39.70;;;;;;;15.27;98.81;101341.66;5348961;26;20337;-79
2024/05/08 06:20:38;;;;;;;43.97;40.50;;;;;;;15.28;99.09;101345.28;5348575;26;20232;-79
2024/05/08 06:23:04;;;;;;;43.37;39.53;;;;;;;15.59;98.70;101350.22;5348843;26;20233;-79
2024/05/08 06:25:29;;;;;;;44.70;41.17;;;;;;;15.75;96.66;101360.91;5348789;26;20237;-79
2024/05/08 06:27:55;;;;;;;43.43;40.00;;;;;;;15.51;98.62;101354.06;5348563;26;20949;-79
2024/05/08 06:30:20;;;;;;;45.37;41.67;;;;;;;15.75;96.97;101356.22;5346329;26;20299;-79
2024/05/08 06:32:45;;;;;;;46.50;42.73;;;;;;;15.70;97.68;101358.81;5348679;26;20237;-79
2024/05/08 06:35:11;;;;;;;48.27;43.63;;;;;;;15.86;96.63;101357.50;5348054;26;20717;-78
2024/05/08 06:37:36;;;;;;;47.70;43.60;;;;;;;15.85;97.08;101374.44;5348427;26;20229;-78
2024/05/08 06:40:02;;;;;;;46.30;42.10;;;;;;;15.91;97.48;101367.97;5348342;26;20683;-79
2024/05/08 06:42:28;;;;;;;45.53;41.90;;;;;;;16.09;97.36;101369.00;5355475;26;20245;-79
2024/05/08 06:44:53;;;;;;;43.97;40.47;;;;;;;16.00;97.19;101369.47;5348084;26;20503;-79
2024/05/08 06:47:18;;;;;;;45.90;42.23;;;;;;;15.88;96.74;101372.06;5347110;26;20233;-79
2024/05/08 06:49:43;;;;;;;50.10;45.80;;;;;;;15.72;96.20;101369.75;5348108;26;20668;-79
2024/05/08 06:52:09;;;;;;;49.90;45.23;;;;;;;15.63;96.82;101377.44;5317447;26;20237;-83
2024/05/08 06:54:34;;;;;;;49.73;45.43;;;;;;;15.66;97.56;101368.66;5317854;26;20237;-82
2024/05/08 06:56:59;;;;;;;50.67;46.00;;;;;;;15.69;97.16;101373.81;5348179;26;20271;-83
2024/05/08 06:59:24;;;;;;;53.00;48.10;;;;;;;15.49;97.86;101370.13;5348630;26;20241;-82
2024/05/08 07:01:50;;;;;;;50.63;45.87;;;;;;;15.55;99.15;101388.81;5348013;26;20229;-81
2024/05/08 07:04:15;;;;;;;51.63;46.93;;;;;;;15.69;98.99;101384.94;5347236;26;20233;-82
2024/05/08 07:06:40;;;;;;;51.40;46.70;;;;;;;15.77;98.53;101390.28;5347282;26;20291;-82
2024/05/08 07:09:05;;;;;;;50.47;45.60;;;;;;;15.56;98.41;101379.41;5317204;26;20334;-81
2024/05/08 07:11:31;;;;;;;54.47;49.00;;;;;;;15.77;99.04;101390.28;5346303;26;20237;-82
2024/05/08 07:13:56;;;;;;;61.10;54.70;;;;;;;15.91;98.49;101399.47;5347990;26;20276;-78
2024/05/08 07:16:21;;;;;;;69.17;59.10;;;;;;;15.32;100.00;101374.41;5317601;26;20241;-81
2024/05/08 07:18:47;;;;;;;64.77;57.10;;;;;;;15.90;98.82;101394.13;5347823;26;20733;-81
2024/05/08 07:21:12;;;;;;;66.97;59.67;;;;;;;15.63;98.43;101396.94;5317410;26;20587;-81
2024/05/08 07:23:37;;;;;;;66.83;57.90;;;;;;;16.21;97.10;101402.63;5347820;26;20253;-82
2024/05/08 07:26:03;;;;;;;66.87;57.37;;;;;;;15.78;97.67;101377.22;5348026;26;20613;-81
2024/05/08 07:28:28;;;;;;;66.30;57.30;;;;;;;15.85;97.66;101394.78;5347768;26;20241;-81
2024/05/08 07:30:53;;;;;;;67.50;55.67;;;;;;;15.89;96.29;101411.94;5347740;26;20244;-80
2024/05/08 07:33:20;;;;;;;64.87;53.80;;;;;;;16.04;95.60;101404.19;5348116;26;20760;-81
2024/05/08 07:35:46;;;;;;;67.00;57.60;;;;;;;15.85;96.62;101410.66;5347422;26;20279;-81
2024/05/08 07:38:12;;;;;;;73.60;59.37;;;;;;;15.63;97.21;101415.59;5346176;26;20456;-81
2024/05/08 07:40:37;;;;;;;77.33;59.30;;;;;;;15.26;98.27;101415.13;5317044;26;20241;-81
2024/05/08 07:43:03;;;;;;;75.60;59.07;;;;;;;15.45;97.42;101414.25;5317102;26;20784;-81
2024/05/08 07:45:29;;;;;;;75.20;62.07;;;;;;;15.73;96.50;101416.88;5347315;26;20241;-80
2024/05/08 07:47:54;;;;;;;75.30;57.50;;;;;;;15.73;98.46;101402.09;5347567;26;20862;-81
2024/05/08 07:50:20;;;;;;;90.60;63.80;;;;;;;15.82;99.15;101404.44;5347254;26;20849;-81
2024/05/08 07:52:45;;;;;;;86.60;60.30;;;;;;;16.18;97.86;101420.69;5347300;26;20245;-78
2024/05/08 07:55:10;;;;;;;81.87;61.30;;;;;;;16.29;95.38;101415.50;5342412;26;20703;-81
2024/05/08 07:57:36;;;;;;;77.87;56.93;;;;;;;16.07;94.71;101426.03;5316940;26;20279;-81
2024/05/08 08:00:01;;;;;;;76.70;58.30;;;;;;;16.15;94.30;101428.63;5318535;26;20233;-81
2024/05/08 08:02:27;;;;;;;71.00;56.70;;;;;;;16.60;93.41;101414.72;5347230;26;20287;-81
2024/05/08 08:04:52;;;;;;;71.87;53.53;;;;;;;16.61;92.63;101424.81;5347458;26;20241;-81
2024/05/08 08:07:17;;;;;;;69.83;52.50;;;;;;;16.31;92.06;101424.50;5347011;26;20225;-79
2024/05/08 08:09:42;;;;;;;68.77;48.73;;;;;;;16.16;91.60;101410.81;5334115;26;20229;-75
2024/05/08 08:12:11;;;;;;;73.30;54.20;;;;;;;16.70;91.40;101418.78;5301974;26;20241;-73
2024/05/08 08:14:36;;;;;;;64.30;50.60;;;;;;;16.39;90.47;101411.16;5340086;26;20268;-77
2024/05/08 08:17:01;;;;;;;69.90;53.50;;;;;;;16.52;88.80;101415.81;5346932;26;20471;-80
2024/05/08 08:19:27;;;;;;;66.90;52.83;;;;;;;15.99;91.01;101417.91;5345995;26;20233;-81
2024/05/08 08:21:53;;;;;;;60.87;49.20;;;;;;;16.14;90.37;101421.31;5316823;26;20802;-83
2024/05/08 08:24:19;;;;;;;60.53;47.50;;;;;;;16.51;87.96;101403.81;5316174;26;20263;-79
2024/05/08 08:26:45;;;;;;;57.90;47.30;;;;;;;16.91;86.21;101417.63;5316100;26;20463;-79
2024/05/08 08:29:10;;;;;;;56.67;45.57;;;;;;;17.58;83.46;101432.81;5338538;26;20228;-78
2024/05/08 08:31:35;;;;;;;54.77;46.90;;;;;;;17.63;82.91;101429.34;5317009;26;20250;-81
2024/05/08 08:34:00;;;;;;;55.17;44.90;;;;;;;17.32;85.16;101419.94;5346798;26;20233;-81
2024/05/08 08:36:26;;;;;;;54.33;43.03;;;;;;;17.20;83.09;101411.41;5346698;26;20232;-86
2024/05/08 08:38:51;;;;;;;57.47;46.33;;;;;;;17.26;83.60;101420.00;5348239;26;20229;-85
2024/05/08 08:41:28;;;;;;;54.57;45.00;;;;;;;17.43;85.31;101423.91;5346844;26;20271;-83
2024/05/08 08:44:01;;;;;;;53.40;43.03;;;;;;;17.62;83.82;101422.91;5316376;26;20248;-82
2024/05/08 08:46:26;;;;;;;53.67;43.73;;;;;;;17.39;83.37;101425.47;5345050;26;20537;-80
2024/05/08 08:48:52;;;;;;;62.27;47.07;;;;;;;17.61;83.24;101426.78;5316374;26;20964;-82
2024/05/08 08:51:20;;;;;;;50.80;45.23;;;;;;;17.72;81.06;101420.47;5316201;26;20725;-78
2024/05/08 08:53:47;;;;;;;49.23;43.50;;;;;;;18.18;79.78;101424.81;5345967;26;21028;-79
2024/05/08 08:56:13;;;;;;;48.60;42.73;;;;;;;18.36;79.32;101421.13;5346555;26;20480;-78
2024/05/08 08:58:40;;;;;;;49.10;41.47;;;;;;;18.52;78.84;101423.31;5315963;26;20487;-78
2024/05/08 09:01:15;;;;;;;43.07;38.47;;;;;;;19.28;73.72;101426.38;5346362;26;20233;-77
2024/05/08 09:03:41;;;;;;;43.33;36.70;;;;;;;19.11;73.00;101425.34;5331754;26;20478;-75
2024/05/08 09:06:07;;;;;;;49.20;40.60;;;;;;;18.72;76.85;101421.16;5346223;26;20507;-79
2024/05/08 09:08:38;;;;;;;48.17;41.47;;;;;;;18.29;79.07;101426.81;5345807;26;20475;-79
2024/05/08 09:11:03;;;;;;;50.13;41.60;;;;;;;18.15;78.21;101417.72;5345792;26;20229;-74
2024/05/08 09:13:30;;;;;;;51.77;42.83;;;;;;;18.34;77.66;101429.75;5346018;26;20520;-75
2024/05/08 09:15:56;;;;;;;47.67;39.67;;;;;;;18.34;79.54;101428.91;5345913;26;20560;-74
2024/05/08 09:18:22;;;;;;;47.70;39.67;;;;;;;18.18;77.63;101431.22;5346672;26;20552;-81
2024/05/08 09:20:53;;;;;;;52.80;41.17;;;;;;;18.14;78.95;101416.00;5334821;26;20245;-83
2024/05/08 09:23:19;;;;;;;45.63;38.17;;;;;;;18.15;79.56;101411.28;5345888;26;20459;-83
2024/05/08 09:25:56;;;;;;;46.13;38.90;;;;;;;18.29;78.50;101426.81;5346398;26;20452;-82
2024/05/08 09:28:23;;;;;;;49.93;39.23;;;;;;;17.58;79.48;101418.84;5345946;26;20892;-83
2024/05/08 09:31:04;;;;;;;62.53;43.17;;;;;;;17.16;84.35;101415.72;5347717;26;20471;-77
2024/05/08 09:33:31;;;;;;;51.30;42.70;;;;;;;17.91;80.19;101425.03;5321873;26;20824;-82
2024/05/08 09:35:56;;;;;;;48.20;41.00;;;;;;;18.16;78.87;101426.97;5341700;26;20527;-77
2024/05/08 09:38:22;;;;;;;54.93;43.00;;;;;;;17.85;79.02;101413.94;5302127;26;20467;-80
2024/05/08 09:40:48;;;;;;;49.23;40.47;;;;;;;17.65;78.75;101419.69;5348917;26;20233;-80
2024/05/08 09:43:14;;;;;;;53.70;37.97;;;;;;;17.76;77.69;101416.16;5349042;26;20512;-82
2024/05/08 09:45:40;;;;;;;51.33;41.47;;;;;;;17.42;80.72;101414.69;5318421;26;20580;-82
2024/05/08 09:48:11;;;;;;;54.83;42.50;;;;;;;17.45;79.29;101430.13;5349387;26;20556;-76
2024/05/08 09:50:38;;;;;;;49.93;42.33;;;;;;;17.52;79.68;101426.22;5349154;26;20508;-79
2024/05/08 09:53:05;;;;;;;47.20;38.23;;;;;;;17.82;80.10;101426.44;5346860;26;20514;-83
2024/05/08 09:55:33;;;;;;;50.23;42.40;;;;;;;17.94;77.75;101429.31;5331590;26;20972;-80
2024/05/08 09:58:04;;;;;;;50.50;42.73;;;;;;;17.10;79.58;101416.66;5318526;26;21023;-82
2024/05/08 10:00:31;;;;;;;53.97;42.20;;;;;;;17.57;78.93;101426.38;5318343;26;20491;-79
2024/05/08 10:02:56;;;;;;;57.17;46.37;;;;;;;17.12;79.84;101411.66;5318461;26;20876;-78
2024/05/08 10:05:21;;;;;;;54.50;46.43;;;;;;;17.44;79.90;101425.63;5317800;26;20996;-76
2024/05/08 10:08:00;;;;;;;54.07;44.90;;;;;;;17.83;78.72;101446.84;5348957;26;20629;-77
2024/05/08 10:10:30;;;;;;;53.77;46.33;;;;;;;17.56;78.38;101421.91;5347201;26;20554;-78
2024/05/08 10:12:56;;;;;;;50.53;44.97;;;;;;;17.09;79.77;101431.69;5348703;26;20459;-80
2024/05/08 10:15:22;;;;;;;54.57;48.77;;;;;;;16.79;80.91;101441.72;5307472;27;21332;-81
2024/05/08 10:17:55;;;;;;;58.03;47.60;;;;;;;17.03;81.56;101432.56;5336622;26;20237;-79
2024/05/08 10:20:24;;;;;;;51.90;44.50;;;;;;;17.14;81.27;101440.22;5348285;26;20271;-80
2024/05/08 10:22:49;;;;;;;53.20;40.07;;;;;;;17.51;79.31;101444.06;5348662;26;20464;-80
2024/05/08 10:25:20;;;;;;;52.87;45.10;;;;;;;18.06;77.66;101443.41;5318146;26;20507;-81
2024/05/08 10:27:47;;;;;;;48.17;42.87;;;;;;;18.28;76.11;101451.16;5317381;26;20256;-81
2024/05/08 10:30:14;;;;;;;50.97;44.07;;;;;;;18.51;74.20;101447.63;5348414;26;20545;-80
2024/05/08 10:32:44;;;;;;;46.73;41.73;;;;;;;18.25;77.39;101448.81;5348335;26;20538;-80
2024/05/08 10:35:12;;;;;;;53.00;46.90;;;;;;;18.63;73.77;101456.19;5348280;26;20567;-81
2024/05/08 10:37:38;;;;;;;49.37;43.50;;;;;;;18.50;73.48;101445.06;5348304;26;20599;-80
2024/05/08 10:40:04;;;;;;;49.60;44.30;;;;;;;18.45;71.85;101440.19;5347795;26;20571;-80
2024/05/08 10:42:30;;;;;;;48.67;43.07;;;;;;;18.56;73.46;101452.56;5347320;26;20515;-81
2024/05/08 10:44:56;;;;;;;50.03;44.13;;;;;;;18.34;75.61;101449.34;5343659;26;20460;-80
2024/05/08 10:47:21;;;;;;;49.50;44.10;;;;;;;18.62;73.81;101454.47;5348114;26;20233;-79
2024/05/08 10:49:56;;;;;;;51.40;45.90;;;;;;;18.64;73.96;101445.84;5348090;26;20229;-80
2024/05/08 10:52:22;;;;;;;53.57;47.67;;;;;;;18.78;73.61;101455.78;5348166;26;20229;-77
2024/05/08 10:54:48;;;;;;;50.80;44.77;;;;;;;18.61;73.32;101449.94;5348104;26;20980;-81
2024/05/08 10:57:14;;;;;;;55.80;47.00;;;;;;;17.94;75.69;101434.91;5347628;26;20610;-81
2024/05/08 10:59:53;;;;;;;50.97;45.53;;;;;;;18.71;72.27;101455.00;5347617;26;20463;-76
2024/05/08 11:02:24;;;;;;;51.77;45.27;;;;;;;18.83;71.49;101448.34;5328099;26;20279;-76
2024/05/08 11:05:08;;;;;;;47.00;42.00;;;;;;;18.84;72.50;101450.06;5348136;26;20456;-76
2024/05/08 11:07:47;;;;;;;48.33;43.00;;;;;;;17.97;74.48;101447.59;5316757;26;20816;-78